ROMMA est une association bénévole à but non lucratif. Votre soutien est indispensable : ADHERER à ROMMA ou FAIRE un DON

Briord - (01, Ain)

Bugey (281 m)   Longitude: 05° 29' 13" E   Latitude: 45° 46' 37" N Station partenaire n°15
 

Détail journalier du     <<     >>

Température Precipitation Humidité Pression Vent Dir Rafale Dir. rafale Ensol.
Heure (°C) (mm) (%) (hPa) (km/h) (km/h) (min)
01:00 -2.9094102400---0
02:00 -3.0094102406SE0
03:00 -3.6094102303SE0
04:00 -4.2093102303O0
05:00 -4.3093102205S0
06:00 -4.3093102100---0
07:00 -4.6093102100---0
08:00 -4.7093102100---0
09:00 -4.6093102100---0
10:00 -1.6093102100---45
11:00 0.00.293102100---60
12:00 1.2092102100---60
13:00 4.2086102100---60
14:00 3.4090102000---25
15:00 3.4090102000---15
16:00 2.8091102000---30
17:00 0.9092102000---25
18:00 -0.5093102100---0
19:00 -1.2093102100---0
20:00 -0.9094102200---0
21:00 -1.0094102200---0
22:00 -1.7093102200---0
23:00 -2.0094102100---0
minuit -1.9094102200---0

Graphique du 04-12-2019

 

Serveur OMMA